createdAt,value
2022-12-20T00:00:51.594Z,3.10
2022-12-20T00:03:18.333Z,3.20
2022-12-20T00:05:44.941Z,2.72
2022-12-20T00:08:11.679Z,3.28
2022-12-20T00:10:39.619Z,2.60
2022-12-20T00:13:06.589Z,2.88
2022-12-20T00:15:33.262Z,2.95
2022-12-20T00:18:00.004Z,2.95
2022-12-20T00:20:27.260Z,2.75
2022-12-20T00:22:53.900Z,2.85
2022-12-20T00:25:20.855Z,3.00
2022-12-20T00:27:50.465Z,2.70
2022-12-20T00:30:17.568Z,2.88
2022-12-20T00:32:44.665Z,2.40
2022-12-20T00:35:11.839Z,3.03
2022-12-20T00:37:38.563Z,2.33
2022-12-20T00:40:06.418Z,2.55
2022-12-20T00:42:33.211Z,2.75
2022-12-20T00:44:59.863Z,2.40
2022-12-20T00:47:26.441Z,2.28
2022-12-20T00:49:52.969Z,2.10
2022-12-20T00:52:19.630Z,2.50
2022-12-20T00:54:46.184Z,2.05
2022-12-20T00:57:12.967Z,2.05
2022-12-20T00:59:39.516Z,2.65
2022-12-20T01:02:06.295Z,2.70
2022-12-20T01:04:32.940Z,2.20
2022-12-20T01:06:59.494Z,1.95
2022-12-20T01:09:26.084Z,2.45
2022-12-20T01:11:52.603Z,2.15
2022-12-20T01:14:19.150Z,1.92
2022-12-20T01:16:47.148Z,2.47
2022-12-20T01:19:17.161Z,2.10
2022-12-20T01:21:46.980Z,1.92
2022-12-20T01:24:17.771Z,1.95
2022-12-20T01:26:45.206Z,1.95
2022-12-20T01:29:13.995Z,2.45
2022-12-20T01:31:42.369Z,2.08
2022-12-20T01:34:10.414Z,2.20
2022-12-20T01:36:40.197Z,2.13
2022-12-20T01:39:13.956Z,1.90
2022-12-20T01:41:42.315Z,2.25
2022-12-20T01:44:17.703Z,1.77
2022-12-20T01:46:45.773Z,1.98
2022-12-20T01:49:16.935Z,2.22
2022-12-20T01:51:48.437Z,1.92
2022-12-20T01:54:37.926Z,1.98
2022-12-20T01:57:08.087Z,2.17
2022-12-20T01:59:37.808Z,1.88
2022-12-20T02:02:08.842Z,2.20
2022-12-20T02:04:35.583Z,2.13
2022-12-20T02:07:03.576Z,2.20
2022-12-20T02:09:31.541Z,2.22
2022-12-20T02:12:17.713Z,2.10
2022-12-20T02:15:10.268Z,2.13
2022-12-20T02:17:55.675Z,2.10
2022-12-20T02:20:29.676Z,2.10
2022-12-20T02:23:19.461Z,2.05
2022-12-20T02:26:17.019Z,2.13
2022-12-20T02:29:09.547Z,1.90
2022-12-20T02:32:16.009Z,2.10
2022-12-20T02:34:43.303Z,2.13
2022-12-20T02:37:10.507Z,2.20
2022-12-20T02:39:39.473Z,1.88
2022-12-20T02:42:23.991Z,2.20
2022-12-20T02:45:14.745Z,2.30
2022-12-20T02:48:04.536Z,2.03
2022-12-20T02:50:39.132Z,2.08
2022-12-20T02:53:06.709Z,2.15
2022-12-20T02:55:46.755Z,1.98
2022-12-20T02:58:23.405Z,2.40
2022-12-20T03:00:51.086Z,2.28
2022-12-20T03:03:24.172Z,2.78
2022-12-20T03:05:55.971Z,2.95
2022-12-20T03:08:23.327Z,3.03
2022-12-20T03:10:51.706Z,3.55
2022-12-20T03:13:18.590Z,3.88
2022-12-20T03:15:50.635Z,3.72
2022-12-20T03:18:17.495Z,3.78
2022-12-20T03:20:44.107Z,3.55
2022-12-20T03:23:10.675Z,4.20
2022-12-20T03:25:37.474Z,4.80
2022-12-20T03:28:05.109Z,6.30
2022-12-20T03:30:31.958Z,6.82
2022-12-20T03:32:58.656Z,7.00
2022-12-20T03:35:25.457Z,7.25
2022-12-20T03:37:52.133Z,9.35
2022-12-20T03:40:18.877Z,12.43
2022-12-20T03:42:45.439Z,18.52
2022-12-20T03:45:12.304Z,21.58
2022-12-20T03:47:39.029Z,19.70
2022-12-20T03:50:06.803Z,20.77
2022-12-20T03:52:35.270Z,14.13
2022-12-20T03:55:01.889Z,14.43
2022-12-20T03:57:39.056Z,14.63
2022-12-20T04:00:16.357Z,14.82
2022-12-20T04:02:46.339Z,12.73
2022-12-20T04:05:13.132Z,13.75
2022-12-20T04:07:39.683Z,13.50
2022-12-20T04:10:08.081Z,13.48
2022-12-20T04:12:34.678Z,15.38
2022-12-20T04:15:02.510Z,17.08
2022-12-20T04:17:29.801Z,19.23
2022-12-20T04:19:56.530Z,23.42
2022-12-20T04:22:23.152Z,26.98
2022-12-20T04:24:59.801Z,24.52
2022-12-20T04:27:31.347Z,21.23
2022-12-20T04:29:58.216Z,19.92
2022-12-20T04:32:24.904Z,17.77
2022-12-20T04:34:52.078Z,19.23
2022-12-20T04:37:19.567Z,15.05
2022-12-20T04:39:51.250Z,14.57
2022-12-20T04:42:24.764Z,14.30
2022-12-20T04:44:52.950Z,15.93
2022-12-20T04:47:24.130Z,16.95
2022-12-20T04:49:52.259Z,18.83
2022-12-20T04:52:40.838Z,18.23
2022-12-20T04:55:10.064Z,19.33
2022-12-20T04:57:36.746Z,19.67
2022-12-20T05:00:07.457Z,24.30
2022-12-20T05:02:34.127Z,24.15
2022-12-20T05:05:06.320Z,23.75
2022-12-20T05:07:39.130Z,22.63
2022-12-20T05:10:06.342Z,17.70
2022-12-20T05:12:32.910Z,15.15
2022-12-20T05:15:02.442Z,13.45
2022-12-20T05:17:29.108Z,12.77
2022-12-20T05:19:55.677Z,13.15
2022-12-20T05:22:40.902Z,13.68
2022-12-20T05:25:30.389Z,14.55
2022-12-20T05:28:00.695Z,13.20
2022-12-20T05:30:31.099Z,12.70
2022-12-20T05:32:57.692Z,13.80
2022-12-20T05:35:24.806Z,13.55
2022-12-20T05:37:57.640Z,13.82
2022-12-20T05:40:24.196Z,14.52
2022-12-20T05:42:50.831Z,14.18
2022-12-20T05:45:19.015Z,15.18
2022-12-20T05:47:51.799Z,15.48
2022-12-20T05:50:19.406Z,15.75
2022-12-20T05:53:11.256Z,17.85
2022-12-20T05:55:47.976Z,20.30
2022-12-20T05:58:15.208Z,20.95
2022-12-20T06:00:51.988Z,21.95
2022-12-20T06:03:19.286Z,23.85
2022-12-20T06:05:46.107Z,23.80
2022-12-20T06:08:17.838Z,22.10
2022-12-20T06:10:44.524Z,19.90
2022-12-20T06:13:14.132Z,19.27
2022-12-20T06:15:41.469Z,18.00
2022-12-20T06:18:08.071Z,17.13
2022-12-20T06:20:35.537Z,16.35
2022-12-20T06:23:03.574Z,14.18
2022-12-20T06:25:36.814Z,15.32
2022-12-20T06:28:03.565Z,15.10
2022-12-20T06:30:33.769Z,15.00
2022-12-20T06:33:18.417Z,14.93
2022-12-20T06:35:45.072Z,16.85
2022-12-20T06:38:12.279Z,17.15
2022-12-20T06:40:39.931Z,19.27
2022-12-20T06:43:07.086Z,20.88
2022-12-20T06:45:41.008Z,21.85
2022-12-20T06:48:09.128Z,23.23
2022-12-20T06:50:36.050Z,22.05
2022-12-20T06:53:02.756Z,21.30
2022-12-20T06:55:29.374Z,21.10
2022-12-20T06:57:56.359Z,20.20
2022-12-20T07:00:23.471Z,19.25
2022-12-20T07:02:50.043Z,16.50
2022-12-20T07:05:16.715Z,14.52
2022-12-20T07:07:45.420Z,14.85
2022-12-20T07:10:12.955Z,14.10
2022-12-20T07:12:43.866Z,12.23
2022-12-20T07:15:13.904Z,12.23
2022-12-20T07:17:40.441Z,10.48
2022-12-20T07:20:13.019Z,10.10
2022-12-20T07:22:40.332Z,11.52
2022-12-20T07:25:06.971Z,10.65
2022-12-20T07:27:33.466Z,12.25
2022-12-20T07:30:00.230Z,11.30
2022-12-20T07:32:26.776Z,11.73
2022-12-20T07:34:53.552Z,10.75
2022-12-20T07:37:20.309Z,10.85
2022-12-20T07:39:46.863Z,9.02
2022-12-20T07:42:13.872Z,8.93
2022-12-20T07:44:42.752Z,7.60
2022-12-20T07:47:10.209Z,7.43
2022-12-20T07:49:37.069Z,7.78
2022-12-20T07:52:04.562Z,7.78
2022-12-20T07:54:33.597Z,7.35
2022-12-20T07:57:04.831Z,6.30
2022-12-20T07:59:37.319Z,7.05
2022-12-20T08:02:05.355Z,6.10
2022-12-20T08:04:33.278Z,6.55
2022-12-20T08:07:01.403Z,6.10
2022-12-20T08:09:34.534Z,5.30
2022-12-20T08:12:01.081Z,5.68
2022-12-20T08:14:27.634Z,5.93
2022-12-20T08:16:54.199Z,5.75
2022-12-20T08:19:21.917Z,5.38
2022-12-20T08:21:50.934Z,6.18
2022-12-20T08:24:17.524Z,6.13
2022-12-20T08:26:44.251Z,5.53
2022-12-20T08:29:10.912Z,6.53
2022-12-20T08:31:42.002Z,7.47
2022-12-20T08:34:12.650Z,7.75
2022-12-20T08:36:39.237Z,8.52
2022-12-20T08:39:06.549Z,6.30
2022-12-20T08:41:34.763Z,7.15
2022-12-20T08:44:01.692Z,6.88
2022-12-20T08:46:28.426Z,5.72
2022-12-20T08:48:55.068Z,6.10
2022-12-20T08:51:21.808Z,6.28
2022-12-20T08:53:48.488Z,5.78
2022-12-20T08:56:17.090Z,5.32
2022-12-20T08:58:44.656Z,5.70
2022-12-20T09:01:14.115Z,4.93
2022-12-20T09:03:41.239Z,5.25
2022-12-20T09:06:13.567Z,4.80
2022-12-20T09:08:40.790Z,4.45
2022-12-20T09:11:33.942Z,5.22
2022-12-20T09:14:00.692Z,4.88
2022-12-20T09:16:30.323Z,4.32
2022-12-20T09:19:04.544Z,4.88
2022-12-20T09:21:32.305Z,4.10
2022-12-20T09:23:59.229Z,4.47
2022-12-20T09:26:26.961Z,4.78
2022-12-20T09:28:53.991Z,4.68
2022-12-20T09:31:22.512Z,4.57
2022-12-20T09:33:49.313Z,4.55
2022-12-20T09:36:18.878Z,5.07
2022-12-20T09:38:46.834Z,5.53
2022-12-20T09:41:22.801Z,5.60
2022-12-20T09:43:49.959Z,5.32
2022-12-20T09:46:17.158Z,5.32
2022-12-20T09:48:44.577Z,6.20
2022-12-20T09:51:30.161Z,5.60
2022-12-20T09:54:18.427Z,5.47
2022-12-20T09:57:00.313Z,5.88
2022-12-20T09:59:27.679Z,5.22
2022-12-20T10:01:54.752Z,7.03
2022-12-20T10:04:22.042Z,7.00
2022-12-20T10:07:18.357Z,6.50
2022-12-20T10:10:19.948Z,6.60
2022-12-20T10:15:24.732Z,6.18
2022-12-20T10:17:57.108Z,7.13
2022-12-20T10:20:29.647Z,5.20
2022-12-20T10:23:04.449Z,5.32
2022-12-20T10:25:33.562Z,5.10
2022-12-20T10:28:05.408Z,5.57
2022-12-20T10:30:33.179Z,5.63
2022-12-20T10:33:00.011Z,6.10
2022-12-20T10:35:28.990Z,5.07
2022-12-20T10:38:07.190Z,5.47
2022-12-20T10:44:00.970Z,5.82
2022-12-20T10:46:42.531Z,5.38
2022-12-20T10:49:43.474Z,5.47
2022-12-20T10:52:10.066Z,5.57
2022-12-20T10:54:37.547Z,5.53
2022-12-20T10:57:16.724Z,5.47
2022-12-20T11:00:05.606Z,4.72
2022-12-20T11:02:40.050Z,4.70
2022-12-20T11:05:10.578Z,4.30
2022-12-20T11:07:41.277Z,4.10
2022-12-20T11:10:25.009Z,4.18
2022-12-20T11:15:34.113Z,4.10
2022-12-20T11:18:20.509Z,4.60
2022-12-20T11:21:14.622Z,4.75
2022-12-20T11:24:04.969Z,4.45
2022-12-20T11:26:41.825Z,4.43
2022-12-20T11:29:33.143Z,3.60
2022-12-20T11:32:27.056Z,4.50
2022-12-20T11:35:16.985Z,4.28
2022-12-20T11:38:09.231Z,4.00
2022-12-20T11:40:52.104Z,4.28
2022-12-20T11:43:43.356Z,4.10
2022-12-20T11:46:52.791Z,3.78
2022-12-20T11:49:53.150Z,4.18
2022-12-20T11:52:36.363Z,3.95
2022-12-20T11:55:15.095Z,3.70
2022-12-20T11:58:17.586Z,3.60
2022-12-20T12:00:40.272Z,3.35
2022-12-20T12:03:36.953Z,3.92
2022-12-20T12:06:08.379Z,3.20
2022-12-20T12:09:22.710Z,2.92
2022-12-20T12:12:07.892Z,3.42
2022-12-20T12:14:45.740Z,3.17
2022-12-20T12:17:35.823Z,3.08
2022-12-20T12:20:19.951Z,3.05
2022-12-20T12:22:49.364Z,3.22
2022-12-20T12:25:17.685Z,2.90
2022-12-20T12:27:44.241Z,2.55
2022-12-20T12:30:15.083Z,3.20
2022-12-20T12:32:53.996Z,3.20
2022-12-20T12:35:44.747Z,2.50
2022-12-20T12:38:58.361Z,2.60
2022-12-20T12:41:47.935Z,2.35
2022-12-20T12:44:20.229Z,2.67
2022-12-20T12:46:52.083Z,2.50
2022-12-20T12:49:21.992Z,3.22
2022-12-20T12:51:52.136Z,2.35
2022-12-20T12:54:23.021Z,2.90
2022-12-20T12:56:51.070Z,3.00
2022-12-20T12:59:32.536Z,2.83
2022-12-20T13:05:06.993Z,2.95
2022-12-20T13:07:33.432Z,3.08
2022-12-20T13:10:01.294Z,2.80
2022-12-20T13:12:36.693Z,3.40
2022-12-20T13:15:23.179Z,3.13
2022-12-20T13:17:53.432Z,3.30
2022-12-20T13:20:34.324Z,3.35
2022-12-20T13:23:12.649Z,3.28
2022-12-20T13:25:41.408Z,4.20
2022-12-20T13:28:30.937Z,3.78
2022-12-20T13:31:04.512Z,4.35
2022-12-20T13:33:48.152Z,3.80
2022-12-20T13:36:17.435Z,4.72
2022-12-20T13:38:54.034Z,4.10
2022-12-20T13:41:35.377Z,4.50
2022-12-20T13:44:13.934Z,5.15
2022-12-20T13:47:01.814Z,4.30
2022-12-20T13:49:32.501Z,4.25
2022-12-20T13:52:11.142Z,4.15
2022-12-20T13:54:42.198Z,4.22
2022-12-20T13:57:10.941Z,4.40
2022-12-20T13:59:37.546Z,4.18
2022-12-20T14:02:09.347Z,4.40
2022-12-20T14:04:44.756Z,4.93
2022-12-20T14:07:14.938Z,4.93
2022-12-20T14:09:45.594Z,4.47
2022-12-20T14:12:17.910Z,4.35
2022-12-20T14:14:50.148Z,5.05
2022-12-20T14:17:33.336Z,4.93
2022-12-20T14:20:06.690Z,5.80
2022-12-20T14:22:34.474Z,5.50
2022-12-20T14:25:02.430Z,5.97
2022-12-20T14:27:34.036Z,6.95
2022-12-20T14:30:00.643Z,6.07
2022-12-20T14:32:27.294Z,6.03
2022-12-20T14:34:54.000Z,5.72
2022-12-20T14:37:41.608Z,6.57
2022-12-20T14:40:10.912Z,6.30
2022-12-20T14:42:39.006Z,6.45
2022-12-20T14:45:14.493Z,6.00
2022-12-20T14:48:09.367Z,6.85
2022-12-20T14:50:40.810Z,6.63
2022-12-20T14:53:20.204Z,7.13
2022-12-20T14:55:46.736Z,7.22
2022-12-20T14:58:33.971Z,7.82
2022-12-20T15:01:04.218Z,8.13
2022-12-20T15:03:30.900Z,7.18
2022-12-20T15:06:00.872Z,7.47
2022-12-20T15:08:34.946Z,6.68
2022-12-20T15:11:10.595Z,7.55
2022-12-20T15:13:38.186Z,6.93
2022-12-20T15:16:12.716Z,7.90
2022-12-20T15:18:39.371Z,6.80
2022-12-20T15:21:12.979Z,6.80
2022-12-20T15:23:51.540Z,7.13
2022-12-20T15:26:21.621Z,7.18
2022-12-20T15:28:48.433Z,6.78
2022-12-20T15:31:16.954Z,7.97
2022-12-20T15:33:44.531Z,7.30
2022-12-20T15:36:19.832Z,7.30
2022-12-20T15:39:11.260Z,7.32
2022-12-20T15:41:34.690Z,8.35
2022-12-20T15:44:14.161Z,9.52
2022-12-20T15:46:40.852Z,9.65
2022-12-20T15:49:17.372Z,9.32
2022-12-20T15:51:44.678Z,9.10
2022-12-20T15:54:22.689Z,10.40
2022-12-20T15:56:49.252Z,10.50
2022-12-20T15:59:57.045Z,9.55
2022-12-20T16:02:02.589Z,9.60
2022-12-20T16:04:29.331Z,10.98
2022-12-20T16:06:55.940Z,10.85
2022-12-20T16:09:25.467Z,10.73
2022-12-20T16:11:52.332Z,11.07
2022-12-20T16:14:23.593Z,11.18
2022-12-20T16:19:17.092Z,10.05
2022-12-20T16:21:52.695Z,10.98
2022-12-20T16:24:20.449Z,11.23
2022-12-20T16:26:48.969Z,10.02
2022-12-20T16:29:16.285Z,10.13
2022-12-20T16:31:43.429Z,10.23
2022-12-20T16:34:13.491Z,9.80
2022-12-20T16:36:40.200Z,10.45
2022-12-20T16:39:06.836Z,10.00
2022-12-20T16:41:33.831Z,10.75
2022-12-20T16:44:01.545Z,10.82
2022-12-20T16:46:30.177Z,10.18
2022-12-20T16:48:57.794Z,10.15
2022-12-20T16:51:30.368Z,9.77
2022-12-20T16:54:19.425Z,10.38
2022-12-20T16:56:47.444Z,10.13
2022-12-20T16:59:20.558Z,9.90
2022-12-20T17:01:48.894Z,9.40
2022-12-20T17:04:17.653Z,9.85
2022-12-20T17:06:45.452Z,9.63
2022-12-20T17:11:58.651Z,10.30
2022-12-20T17:14:25.286Z,11.35
2022-12-20T17:16:52.464Z,10.63
2022-12-20T17:19:19.815Z,10.65
2022-12-20T17:24:32.892Z,10.05
2022-12-20T17:27:00.395Z,11.20
2022-12-20T17:29:27.403Z,11.43
2022-12-20T17:31:54.509Z,10.68
2022-12-20T17:34:24.599Z,9.88
2022-12-20T17:36:54.256Z,11.52
2022-12-20T17:39:22.321Z,10.55
2022-12-20T17:41:52.066Z,10.82
2022-12-20T17:44:23.833Z,10.82
2022-12-20T17:46:51.214Z,11.00
2022-12-20T17:49:19.504Z,10.20
2022-12-20T17:51:46.421Z,11.93
2022-12-20T17:54:20.065Z,11.40
2022-12-20T17:56:47.102Z,11.07
2022-12-20T17:59:14.295Z,11.90
2022-12-20T18:01:43.068Z,10.38
2022-12-20T18:04:14.886Z,10.07
2022-12-20T18:06:44.347Z,10.25
2022-12-20T18:09:16.870Z,10.50
2022-12-20T18:11:43.524Z,10.95
2022-12-20T18:14:11.164Z,10.35
2022-12-20T18:16:39.214Z,11.05
2022-12-20T18:19:07.227Z,11.90
2022-12-20T18:21:34.228Z,11.05
2022-12-20T18:24:00.894Z,11.65
2022-12-20T18:26:29.888Z,11.98
2022-12-20T18:29:01.218Z,12.00
2022-12-20T18:33:58.237Z,11.13
2022-12-20T18:36:27.738Z,12.10
2022-12-20T18:38:54.756Z,12.00
2022-12-20T18:41:26.527Z,12.95
2022-12-20T18:43:56.511Z,12.63
2022-12-20T18:46:26.164Z,14.15
2022-12-20T18:48:55.303Z,13.68
2022-12-20T18:51:24.786Z,14.60
2022-12-20T18:53:55.213Z,13.35
2022-12-20T18:56:28.717Z,15.18
2022-12-20T18:58:56.988Z,14.57
2022-12-20T19:01:29.311Z,16.15
2022-12-20T19:03:56.356Z,14.85
2022-12-20T19:06:23.584Z,14.23
2022-12-20T19:08:50.800Z,14.63
2022-12-20T19:11:20.177Z,15.38
2022-12-20T19:13:46.992Z,14.88
2022-12-20T19:16:16.278Z,15.95
2022-12-20T19:18:43.783Z,15.30
2022-12-20T19:21:16.281Z,16.05
2022-12-20T19:23:45.247Z,13.85
2022-12-20T19:26:13.400Z,15.57
2022-12-20T19:28:41.574Z,14.20
2022-12-20T19:31:08.332Z,14.85
2022-12-20T19:33:39.377Z,15.35
2022-12-20T19:36:25.695Z,14.88
2022-12-20T19:38:57.632Z,14.90
2022-12-20T19:41:26.333Z,15.88
2022-12-20T19:43:53.131Z,16.00
2022-12-20T19:46:28.385Z,15.50
2022-12-20T19:48:56.080Z,15.73
2022-12-20T19:51:23.438Z,15.88
2022-12-20T19:53:51.784Z,15.95
2022-12-20T19:56:20.901Z,16.45
2022-12-20T19:58:47.879Z,16.95
2022-12-20T20:01:16.237Z,16.08
2022-12-20T20:03:43.532Z,16.08
2022-12-20T20:06:10.520Z,16.85
2022-12-20T20:08:37.409Z,16.13
2022-12-20T20:11:09.530Z,16.65
2022-12-20T20:13:38.145Z,16.25
2022-12-20T20:16:05.605Z,16.38
2022-12-20T20:18:37.259Z,17.65
2022-12-20T20:21:08.586Z,17.77
2022-12-20T20:26:06.897Z,17.75
2022-12-20T20:28:38.455Z,19.05
2022-12-20T20:31:15.537Z,18.77
2022-12-20T20:33:42.697Z,17.90
2022-12-20T20:36:12.484Z,18.45
2022-12-20T20:38:39.081Z,18.52
2022-12-20T20:41:05.780Z,18.73
2022-12-20T20:43:36.617Z,20.75
2022-12-20T20:46:06.027Z,19.00
2022-12-20T20:48:32.669Z,18.75
2022-12-20T20:50:59.356Z,19.58
2022-12-20T20:53:31.216Z,19.02
2022-12-20T20:56:00.245Z,17.75
2022-12-20T20:58:26.920Z,17.98
2022-12-20T21:01:01.350Z,17.73
2022-12-20T21:03:29.192Z,18.10
2022-12-20T21:08:42.753Z,16.67
2022-12-20T21:11:09.933Z,18.23
2022-12-20T21:13:36.845Z,17.15
2022-12-20T21:16:08.368Z,17.08
2022-12-20T21:18:35.585Z,17.02
2022-12-20T21:21:09.416Z,16.52
2022-12-20T21:23:36.452Z,16.70
2022-12-20T21:26:03.465Z,17.35
2022-12-20T21:28:31.460Z,15.35
2022-12-20T21:31:01.658Z,16.35
2022-12-20T21:33:28.937Z,16.75
2022-12-20T21:36:02.975Z,15.68
2022-12-20T21:38:29.495Z,15.23
2022-12-20T21:41:07.078Z,14.60
2022-12-20T21:43:33.725Z,14.20
2022-12-20T21:46:00.962Z,13.77
2022-12-20T21:48:27.497Z,13.25
2022-12-20T21:51:06.219Z,13.82
2022-12-20T21:53:33.164Z,13.02
2022-12-20T21:56:00.524Z,13.10
2022-12-20T21:58:28.222Z,13.48
2022-12-20T22:00:55.989Z,12.75
2022-12-20T22:03:23.637Z,11.93
2022-12-20T22:05:52.311Z,12.40
2022-12-20T22:08:19.567Z,12.43
2022-12-20T22:10:46.267Z,12.35
2022-12-20T22:13:13.370Z,13.00
2022-12-20T22:15:40.729Z,12.38
2022-12-20T22:18:07.932Z,12.45
2022-12-20T22:20:35.587Z,12.50
2022-12-20T22:23:02.404Z,12.07
2022-12-20T22:25:28.932Z,12.68
2022-12-20T22:27:55.507Z,11.27
2022-12-20T22:30:22.019Z,12.65
2022-12-20T22:32:48.635Z,12.18
2022-12-20T22:35:22.299Z,13.20
2022-12-20T22:37:49.398Z,12.43
2022-12-20T22:40:15.957Z,12.07
2022-12-20T22:42:42.526Z,12.95
2022-12-20T22:45:09.786Z,11.88
2022-12-20T22:47:36.830Z,12.40
2022-12-20T22:50:06.844Z,11.75
2022-12-20T22:52:33.617Z,12.50
2022-12-20T22:55:00.174Z,12.18
2022-12-20T22:57:27.662Z,12.38
2022-12-20T22:59:58.535Z,11.27
2022-12-20T23:02:26.201Z,12.38
2022-12-20T23:04:52.898Z,11.55
2022-12-20T23:07:20.772Z,12.52
2022-12-20T23:09:47.318Z,11.90
2022-12-20T23:12:32.767Z,12.38
2022-12-20T23:15:17.701Z,12.55
2022-12-20T23:17:44.422Z,13.93
2022-12-20T23:20:29.914Z,12.75
2022-12-20T23:22:56.432Z,13.43
2022-12-20T23:25:23.101Z,13.93
2022-12-20T23:27:50.002Z,14.35
2022-12-20T23:30:19.501Z,13.98
2022-12-20T23:32:46.638Z,14.88
2022-12-20T23:35:15.735Z,14.45
2022-12-20T23:37:42.698Z,15.20
2022-12-20T23:40:10.795Z,15.60
2022-12-20T23:42:37.607Z,14.25
2022-12-20T23:45:04.608Z,14.77
2022-12-20T23:47:31.536Z,16.13
2022-12-20T23:49:58.039Z,16.30
2022-12-20T23:52:24.701Z,16.77
2022-12-20T23:54:51.254Z,16.33
2022-12-20T23:57:17.759Z,16.45
2022-12-20T23:59:44.331Z,16.30
